sensor_id;sensor_type;location;lat;lon;timestamp;pressure;altitude;pressure_sealevel;temperature;humidity
36248;BME280;22287;50.824;5.644;2022-10-31T00:00:47;101301.94;;;16.00;68.68
36248;BME280;22287;50.824;5.644;2022-10-31T00:03:14;101301.38;;;15.97;68.87
36248;BME280;22287;50.824;5.644;2022-10-31T00:05:46;101297.16;;;15.84;69.03
36248;BME280;22287;50.824;5.644;2022-10-31T00:08:14;101293.56;;;15.84;69.04
36248;BME280;22287;50.824;5.644;2022-10-31T00:10:43;101301.63;;;15.76;68.83
36248;BME280;22287;50.824;5.644;2022-10-31T00:13:10;101300.44;;;15.51;70.30
36248;BME280;22287;50.824;5.644;2022-10-31T00:15:39;101300.09;;;15.64;69.25
36248;BME280;22287;50.824;5.644;2022-10-31T00:18:08;101298.13;;;15.47;70.33
36248;BME280;22287;50.824;5.644;2022-10-31T00:20:36;101297.84;;;15.50;70.14
36248;BME280;22287;50.824;5.644;2022-10-31T00:23:04;101299.28;;;15.54;69.75
36248;BME280;22287;50.824;5.644;2022-10-31T00:25:37;101293.81;;;15.54;70.10
36248;BME280;22287;50.824;5.644;2022-10-31T00:28:05;101288.63;;;15.60;69.90
36248;BME280;22287;50.824;5.644;2022-10-31T00:30:33;101292.78;;;15.55;69.62
36248;BME280;22287;50.824;5.644;2022-10-31T00:32:59;101285.34;;;15.57;69.63
36248;BME280;22287;50.824;5.644;2022-10-31T00:35:26;101296.38;;;15.65;69.08
36248;BME280;22287;50.824;5.644;2022-10-31T00:37:53;101293.22;;;15.60;69.01
36248;BME280;22287;50.824;5.644;2022-10-31T00:40:20;101292.66;;;15.56;69.32
36248;BME280;22287;50.824;5.644;2022-10-31T00:42:47;101289.78;;;15.58;69.27
36248;BME280;22287;50.824;5.644;2022-10-31T00:45:14;101281.34;;;15.51;68.95
36248;BME280;22287;50.824;5.644;2022-10-31T00:47:40;101292.50;;;15.58;69.10
36248;BME280;22287;50.824;5.644;2022-10-31T00:50:07;101279.38;;;15.24;70.85
36248;BME280;22287;50.824;5.644;2022-10-31T00:52:34;101298.72;;;15.41;69.78
36248;BME280;22287;50.824;5.644;2022-10-31T00:55:06;101288.66;;;15.51;69.45
36248;BME280;22287;50.824;5.644;2022-10-31T00:57:33;101275.19;;;15.40;69.73
36248;BME280;22287;50.824;5.644;2022-10-31T01:00:02;101286.38;;;15.37;70.07
36248;BME280;22287;50.824;5.644;2022-10-31T01:02:29;101283.34;;;15.40;69.10
36248;BME280;22287;50.824;5.644;2022-10-31T01:04:56;101292.69;;;15.27;69.83
36248;BME280;22287;50.824;5.644;2022-10-31T01:07:23;101288.44;;;15.15;70.13
36248;BME280;22287;50.824;5.644;2022-10-31T01:09:50;101284.44;;;15.00;70.72
36248;BME280;22287;50.824;5.644;2022-10-31T01:12:18;101286.13;;;15.11;70.21
36248;BME280;22287;50.824;5.644;2022-10-31T01:14:45;101279.25;;;15.26;69.40
36248;BME280;22287;50.824;5.644;2022-10-31T01:17:13;101281.44;;;15.03;69.91
36248;BME280;22287;50.824;5.644;2022-10-31T01:19:40;101278.13;;;15.09;70.14
36248;BME280;22287;50.824;5.644;2022-10-31T01:22:07;101272.81;;;15.08;69.56
36248;BME280;22287;50.824;5.644;2022-10-31T01:24:34;101275.28;;;14.92;69.92
36248;BME280;22287;50.824;5.644;2022-10-31T01:27:01;101279.56;;;14.94;69.87
36248;BME280;22287;50.824;5.644;2022-10-31T01:29:32;101282.91;;;14.88;70.01
36248;BME280;22287;50.824;5.644;2022-10-31T01:31:59;101284.19;;;14.94;69.83
36248;BME280;22287;50.824;5.644;2022-10-31T01:34:26;101282.91;;;14.88;69.98
36248;BME280;22287;50.824;5.644;2022-10-31T01:36:53;101276.84;;;14.94;69.83
36248;BME280;22287;50.824;5.644;2022-10-31T01:39:22;101273.56;;;14.81;70.23
36248;BME280;22287;50.824;5.644;2022-10-31T01:41:52;101260.13;;;14.80;70.81
36248;BME280;22287;50.824;5.644;2022-10-31T01:46:49;101265.41;;;14.62;70.71
36248;BME280;22287;50.824;5.644;2022-10-31T01:49:22;101269.31;;;14.69;70.69
36248;BME280;22287;50.824;5.644;2022-10-31T01:51:56;101266.56;;;14.69;70.62
36248;BME280;22287;50.824;5.644;2022-10-31T01:54:29;101268.13;;;14.81;69.93
36248;BME280;22287;50.824;5.644;2022-10-31T01:56:59;101267.13;;;14.82;70.31
36248;BME280;22287;50.824;5.644;2022-10-31T01:59:29;101271.16;;;14.88;70.25
36248;BME280;22287;50.824;5.644;2022-10-31T02:02:00;101272.13;;;14.87;69.86
36248;BME280;22287;50.824;5.644;2022-10-31T02:04:27;101272.16;;;14.77;70.69
36248;BME280;22287;50.824;5.644;2022-10-31T02:07:29;101266.69;;;14.67;71.05
36248;BME280;22287;50.824;5.644;2022-10-31T02:09:58;101266.84;;;14.76;71.04
36248;BME280;22287;50.824;5.644;2022-10-31T02:12:25;101269.31;;;14.69;71.05
36248;BME280;22287;50.824;5.644;2022-10-31T02:14:59;101277.56;;;14.87;70.54
36248;BME280;22287;50.824;5.644;2022-10-31T02:17:26;101279.28;;;14.97;70.02
36248;BME280;22287;50.824;5.644;2022-10-31T02:25:41;101264.81;;;15.06;70.09
36248;BME280;22287;50.824;5.644;2022-10-31T02:37:03;101250.31;;;15.15;68.96
36248;BME280;22287;50.824;5.644;2022-10-31T02:46:17;101244.75;;;14.98;69.47
36248;BME280;22287;50.824;5.644;2022-10-31T02:48:47;101251.66;;;14.92;69.53
36248;BME280;22287;50.824;5.644;2022-10-31T02:51:40;101248.78;;;14.94;69.58
36248;BME280;22287;50.824;5.644;2022-10-31T02:54:19;101242.38;;;14.66;70.37
36248;BME280;22287;50.824;5.644;2022-10-31T02:56:51;101238.06;;;14.54;70.81
36248;BME280;22287;50.824;5.644;2022-10-31T02:59:20;101233.91;;;14.59;70.05
36248;BME280;22287;50.824;5.644;2022-10-31T03:15:32;101227.19;;;14.54;69.53
36248;BME280;22287;50.824;5.644;2022-10-31T03:18:37;101224.28;;;14.17;70.45
36248;BME280;22287;50.824;5.644;2022-10-31T03:21:07;101229.72;;;14.17;70.31
36248;BME280;22287;50.824;5.644;2022-10-31T03:23:37;101219.63;;;14.38;69.80
36248;BME280;22287;50.824;5.644;2022-10-31T03:26:08;101216.75;;;14.49;69.76
36248;BME280;22287;50.824;5.644;2022-10-31T03:28:38;101215.16;;;14.56;69.22
36248;BME280;22287;50.824;5.644;2022-10-31T03:31:07;101228.31;;;14.42;69.53
36248;BME280;22287;50.824;5.644;2022-10-31T03:33:40;101228.31;;;14.42;69.67
36248;BME280;22287;50.824;5.644;2022-10-31T03:36:10;101226.78;;;14.49;69.42
36248;BME280;22287;50.824;5.644;2022-10-31T03:38:41;101232.06;;;14.41;69.80
36248;BME280;22287;50.824;5.644;2022-10-31T03:41:13;101238.78;;;14.37;69.79
36248;BME280;22287;50.824;5.644;2022-10-31T03:43:56;101236.59;;;14.31;70.24
36248;BME280;22287;50.824;5.644;2022-10-31T03:46:25;101226.03;;;14.28;69.96
36248;BME280;22287;50.824;5.644;2022-10-31T03:48:55;101224.56;;;14.24;70.31
36248;BME280;22287;50.824;5.644;2022-10-31T03:54:08;101223.72;;;14.13;70.61
36248;BME280;22287;50.824;5.644;2022-10-31T03:56:43;101231.78;;;14.34;69.86
36248;BME280;22287;50.824;5.644;2022-10-31T03:59:35;101230.31;;;14.30;69.00
36248;BME280;22287;50.824;5.644;2022-10-31T04:02:10;101230.44;;;14.29;69.79
36248;BME280;22287;50.824;5.644;2022-10-31T04:04:42;101219.13;;;14.24;69.86
36248;BME280;22287;50.824;5.644;2022-10-31T04:07:12;101235.16;;;14.17;69.76
36248;BME280;22287;50.824;5.644;2022-10-31T04:09:43;101224.88;;;14.30;69.51
36248;BME280;22287;50.824;5.644;2022-10-31T04:12:14;101234.28;;;14.07;70.42
36248;BME280;22287;50.824;5.644;2022-10-31T04:15:14;101231.25;;;14.00;70.75
36248;BME280;22287;50.824;5.644;2022-10-31T04:17:44;101229.41;;;13.91;70.82
36248;BME280;22287;50.824;5.644;2022-10-31T04:20:15;101232.00;;;14.02;70.49
36248;BME280;22287;50.824;5.644;2022-10-31T04:22:42;101226.84;;;13.99;70.21
36248;BME280;22287;50.824;5.644;2022-10-31T04:25:09;101219.97;;;14.14;69.21
36248;BME280;22287;50.824;5.644;2022-10-31T04:27:37;101221.69;;;14.06;70.08
36248;BME280;22287;50.824;5.644;2022-10-31T04:30:06;101217.56;;;14.21;69.07
36248;BME280;22287;50.824;5.644;2022-10-31T04:32:36;101220.53;;;13.99;69.84
36248;BME280;22287;50.824;5.644;2022-10-31T04:35:03;101213.84;;;14.12;70.24
36248;BME280;22287;50.824;5.644;2022-10-31T04:37:31;101209.84;;;14.17;69.76
36248;BME280;22287;50.824;5.644;2022-10-31T04:40:00;101209.97;;;14.05;70.05
36248;BME280;22287;50.824;5.644;2022-10-31T04:42:55;101211.09;;;13.93;70.20
36248;BME280;22287;50.824;5.644;2022-10-31T04:45:23;101215.28;;;13.58;71.62
36248;BME280;22287;50.824;5.644;2022-10-31T04:47:51;101220.06;;;13.75;70.43
36248;BME280;22287;50.824;5.644;2022-10-31T04:50:18;101221.41;;;13.99;69.67
36248;BME280;22287;50.824;5.644;2022-10-31T04:52:46;101213.06;;;13.82;70.35
36248;BME280;22287;50.824;5.644;2022-10-31T04:55:16;101212.19;;;13.81;70.13
36248;BME280;22287;50.824;5.644;2022-10-31T04:57:48;101209.91;;;13.77;70.24
36248;BME280;22287;50.824;5.644;2022-10-31T05:00:19;101205.88;;;13.81;69.72
36248;BME280;22287;50.824;5.644;2022-10-31T05:02:51;101200.59;;;13.70;70.28
36248;BME280;22287;50.824;5.644;2022-10-31T05:05:33;101209.41;;;13.52;70.90
36248;BME280;22287;50.824;5.644;2022-10-31T05:08:02;101214.16;;;13.60;70.32
36248;BME280;22287;50.824;5.644;2022-10-31T05:10:31;101211.78;;;13.86;69.80
36248;BME280;22287;50.824;5.644;2022-10-31T05:13:00;101214.75;;;13.73;69.88
36248;BME280;22287;50.824;5.644;2022-10-31T05:16:03;101200.88;;;13.76;70.01
36248;BME280;22287;50.824;5.644;2022-10-31T05:18:52;101195.88;;;13.72;69.89
36248;BME280;22287;50.824;5.644;2022-10-31T05:21:20;101198.34;;;13.84;69.51
36248;BME280;22287;50.824;5.644;2022-10-31T05:23:50;101203.13;;;13.62;69.93
36248;BME280;22287;50.824;5.644;2022-10-31T05:26:33;101206.69;;;13.52;69.91
36248;BME280;22287;50.824;5.644;2022-10-31T05:29:00;101190.13;;;13.65;69.61
36248;BME280;22287;50.824;5.644;2022-10-31T05:31:27;101192.56;;;13.68;69.63
36248;BME280;22287;50.824;5.644;2022-10-31T05:33:54;101180.44;;;13.72;69.71
36248;BME280;22287;50.824;5.644;2022-10-31T05:36:21;101176.75;;;13.83;69.76
36248;BME280;22287;50.824;5.644;2022-10-31T05:38:59;101180.44;;;13.72;69.58
36248;BME280;22287;50.824;5.644;2022-10-31T05:41:40;101189.16;;;13.66;70.04
36248;BME280;22287;50.824;5.644;2022-10-31T05:44:13;101175.84;;;13.63;70.09
36248;BME280;22287;50.824;5.644;2022-10-31T05:46:52;101175.56;;;13.66;70.35
36248;BME280;22287;50.824;5.644;2022-10-31T05:49:50;101164.28;;;13.71;70.19
36248;BME280;22287;50.824;5.644;2022-10-31T05:52:35;101155.56;;;13.86;69.54
36248;BME280;22287;50.824;5.644;2022-10-31T05:55:12;101157.00;;;13.71;70.09
36248;BME280;22287;50.824;5.644;2022-10-31T05:57:49;101164.88;;;13.93;69.74
36248;BME280;22287;50.824;5.644;2022-10-31T06:00:15;101162.09;;;13.65;70.81
36248;BME280;22287;50.824;5.644;2022-10-31T06:02:48;101157.00;;;13.81;69.70
36248;BME280;22287;50.824;5.644;2022-10-31T06:05:23;101168.66;;;13.52;71.52
36248;BME280;22287;50.824;5.644;2022-10-31T06:07:51;101166.44;;;13.77;70.15
36248;BME280;22287;50.824;5.644;2022-10-31T06:10:18;101159.44;;;13.84;69.77
36248;BME280;22287;50.824;5.644;2022-10-31T06:12:50;101159.84;;;13.70;70.07
36248;BME280;22287;50.824;5.644;2022-10-31T06:15:28;101153.81;;;13.57;70.69
36248;BME280;22287;50.824;5.644;2022-10-31T06:18:05;101145.97;;;13.73;69.82
36248;BME280;22287;50.824;5.644;2022-10-31T06:20:36;101152.16;;;13.94;69.15
36248;BME280;22287;50.824;5.644;2022-10-31T06:23:04;101153.03;;;13.94;68.87
36248;BME280;22287;50.824;5.644;2022-10-31T06:25:32;101155.00;;;13.92;68.83
36248;BME280;22287;50.824;5.644;2022-10-31T06:27:59;101149.84;;;13.89;68.26
36248;BME280;22287;50.824;5.644;2022-10-31T06:30:49;101151.88;;;13.78;68.92
36248;BME280;22287;50.824;5.644;2022-10-31T06:33:16;101162.56;;;13.70;68.80
36248;BME280;22287;50.824;5.644;2022-10-31T06:35:53;101164.72;;;13.76;68.58
36248;BME280;22287;50.824;5.644;2022-10-31T06:38:21;101163.00;;;13.84;68.39
36248;BME280;22287;50.824;5.644;2022-10-31T06:40:47;101157.59;;;14.03;68.01
36248;BME280;22287;50.824;5.644;2022-10-31T06:43:19;101162.16;;;13.74;68.49
36248;BME280;22287;50.824;5.644;2022-10-31T06:45:46;101168.41;;;13.65;68.82
36248;BME280;22287;50.824;5.644;2022-10-31T06:48:25;101171.66;;;13.59;68.85
36248;BME280;22287;50.824;5.644;2022-10-31T06:51:18;101177.25;;;13.58;69.09
36248;BME280;22287;50.824;5.644;2022-10-31T06:53:48;101180.09;;;13.56;68.72
36248;BME280;22287;50.824;5.644;2022-10-31T06:56:16;101170.38;;;13.53;68.92
36248;BME280;22287;50.824;5.644;2022-10-31T06:58:47;101174.66;;;13.46;69.28
36248;BME280;22287;50.824;5.644;2022-10-31T07:01:16;101169.66;;;13.42;69.22
36248;BME280;22287;50.824;5.644;2022-10-31T07:03:43;101166.84;;;13.63;68.95
36248;BME280;22287;50.824;5.644;2022-10-31T07:06:10;101170.03;;;13.77;68.49
36248;BME280;22287;50.824;5.644;2022-10-31T07:08:38;101174.44;;;13.78;68.50
36248;BME280;22287;50.824;5.644;2022-10-31T07:11:05;101171.88;;;13.86;68.78
36248;BME280;22287;50.824;5.644;2022-10-31T07:13:32;101175.06;;;13.91;68.83
36248;BME280;22287;50.824;5.644;2022-10-31T07:16:04;101178.78;;;14.09;68.91
36248;BME280;22287;50.824;5.644;2022-10-31T07:18:35;101173.50;;;14.08;69.79
36248;BME280;22287;50.824;5.644;2022-10-31T07:21:02;101177.38;;;14.25;69.55
36248;BME280;22287;50.824;5.644;2022-10-31T07:23:31;101188.66;;;14.30;69.66
36248;BME280;22287;50.824;5.644;2022-10-31T07:26:24;101180.66;;;14.47;69.51
36248;BME280;22287;50.824;5.644;2022-10-31T07:28:51;101183.53;;;14.36;69.58
36248;BME280;22287;50.824;5.644;2022-10-31T07:31:21;101185.69;;;14.52;69.04
36248;BME280;22287;50.824;5.644;2022-10-31T07:33:50;101177.09;;;14.47;69.13
36248;BME280;22287;50.824;5.644;2022-10-31T07:36:25;101186.81;;;14.59;69.53
36248;BME280;22287;50.824;5.644;2022-10-31T07:38:55;101181.22;;;14.70;69.30
36248;BME280;22287;50.824;5.644;2022-10-31T07:41:22;101180.50;;;14.68;69.19
36248;BME280;22287;50.824;5.644;2022-10-31T07:43:52;101187.22;;;14.64;69.24
36248;BME280;22287;50.824;5.644;2022-10-31T07:46:53;101192.50;;;14.75;69.70
36248;BME280;22287;50.824;5.644;2022-10-31T07:49:39;101183.34;;;14.76;69.85
36248;BME280;22287;50.824;5.644;2022-10-31T07:52:08;101179.59;;;14.87;69.68
36248;BME280;22287;50.824;5.644;2022-10-31T07:55:14;101177.53;;;15.08;70.53
36248;BME280;22287;50.824;5.644;2022-10-31T07:57:45;101180.16;;;15.37;69.07
36248;BME280;22287;50.824;5.644;2022-10-31T08:00:12;101176.44;;;15.38;69.12
36248;BME280;22287;50.824;5.644;2022-10-31T08:02:42;101176.34;;;15.20;69.50
36248;BME280;22287;50.824;5.644;2022-10-31T08:05:29;101182.09;;;15.17;69.97
36248;BME280;22287;50.824;5.644;2022-10-31T08:08:22;101164.06;;;15.16;70.32
36248;BME280;22287;50.824;5.644;2022-10-31T08:10:50;101155.31;;;14.66;72.15
36248;BME280;22287;50.824;5.644;2022-10-31T08:13:31;101151.31;;;14.60;72.93
36248;BME280;22287;50.824;5.644;2022-10-31T08:15:58;101150.16;;;15.09;71.62
36248;BME280;22287;50.824;5.644;2022-10-31T08:18:33;101147.66;;;15.25;70.84
36248;BME280;22287;50.824;5.644;2022-10-31T08:21:00;101142.63;;;14.94;71.15
36248;BME280;22287;50.824;5.644;2022-10-31T08:23:43;101142.47;;;14.95;72.05
36248;BME280;22287;50.824;5.644;2022-10-31T08:26:09;101143.69;;;15.20;71.29
36248;BME280;22287;50.824;5.644;2022-10-31T08:28:36;101144.81;;;15.27;70.55
36248;BME280;22287;50.824;5.644;2022-10-31T08:31:03;101148.47;;;15.36;70.08
36248;BME280;22287;50.824;5.644;2022-10-31T08:33:40;101135.81;;;15.17;70.82
36248;BME280;22287;50.824;5.644;2022-10-31T08:36:20;101137.91;;;14.96;71.23
36248;BME280;22287;50.824;5.644;2022-10-31T08:38:55;101130.81;;;15.12;71.88
36248;BME280;22287;50.824;5.644;2022-10-31T08:41:28;101139.38;;;15.17;71.86
36248;BME280;22287;50.824;5.644;2022-10-31T08:43:55;101133.53;;;15.12;71.89
36248;BME280;22287;50.824;5.644;2022-10-31T08:46:22;101128.13;;;15.30;71.39
36248;BME280;22287;50.824;5.644;2022-10-31T08:48:49;101115.19;;;15.42;70.63
36248;BME280;22287;50.824;5.644;2022-10-31T08:51:17;101111.94;;;15.38;71.01
36248;BME280;22287;50.824;5.644;2022-10-31T08:53:44;101107.88;;;15.42;71.39
36248;BME280;22287;50.824;5.644;2022-10-31T08:56:36;101100.78;;;15.59;71.29
36248;BME280;22287;50.824;5.644;2022-10-31T08:59:13;101105.91;;;15.62;70.92
36248;BME280;22287;50.824;5.644;2022-10-31T09:01:58;101106.06;;;15.33;71.74
36248;BME280;22287;50.824;5.644;2022-10-31T09:04:25;101101.63;;;15.32;72.43
36248;BME280;22287;50.824;5.644;2022-10-31T09:06:52;101096.13;;;15.42;71.39
36248;BME280;22287;50.824;5.644;2022-10-31T09:09:39;101085.38;;;16.20;69.25
36248;BME280;22287;50.824;5.644;2022-10-31T09:12:06;101091.16;;;15.82;70.62
36248;BME280;22287;50.824;5.644;2022-10-31T09:14:50;101095.91;;;15.98;69.37
36248;BME280;22287;50.824;5.644;2022-10-31T09:17:24;101093.78;;;15.92;70.13
36248;BME280;22287;50.824;5.644;2022-10-31T09:20:12;101079.19;;;16.36;69.09
36248;BME280;22287;50.824;5.644;2022-10-31T09:22:38;101065.44;;;16.02;70.43
36248;BME280;22287;50.824;5.644;2022-10-31T09:25:07;101070.59;;;15.70;71.67
36248;BME280;22287;50.824;5.644;2022-10-31T09:27:36;101070.06;;;16.27;69.58
36248;BME280;22287;50.824;5.644;2022-10-31T09:30:05;101062.00;;;16.61;68.69
36248;BME280;22287;50.824;5.644;2022-10-31T09:32:33;101055.84;;;16.41;69.20
36248;BME280;22287;50.824;5.644;2022-10-31T09:34:59;101053.28;;;16.14;70.57
36248;BME280;22287;50.824;5.644;2022-10-31T09:37:27;101048.88;;;16.21;70.05
36248;BME280;22287;50.824;5.644;2022-10-31T09:39:54;101043.69;;;16.10;70.43
36248;BME280;22287;50.824;5.644;2022-10-31T09:45:31;101040.91;;;16.45;69.93
36248;BME280;22287;50.824;5.644;2022-10-31T09:51:28;101022.28;;;16.67;69.50
36248;BME280;22287;50.824;5.644;2022-10-31T09:54:20;101029.28;;;16.00;71.88
36248;BME280;22287;50.824;5.644;2022-10-31T09:56:49;101028.13;;;16.80;68.78
36248;BME280;22287;50.824;5.644;2022-10-31T09:59:25;101026.34;;;16.63;69.40
36248;BME280;22287;50.824;5.644;2022-10-31T10:01:57;101028.69;;;16.83;69.03
36248;BME280;22287;50.824;5.644;2022-10-31T10:04:42;101033.97;;;16.85;68.84
36248;BME280;22287;50.824;5.644;2022-10-31T10:19:32;101015.56;;;17.37;66.76
36248;BME280;22287;50.824;5.644;2022-10-31T10:22:38;101015.31;;;17.72;66.01
36248;BME280;22287;50.824;5.644;2022-10-31T10:27:51;101002.94;;;17.44;67.34
36248;BME280;22287;50.824;5.644;2022-10-31T10:30:59;100992.25;;;16.67;70.15
36248;BME280;22287;50.824;5.644;2022-10-31T10:36:48;100986.94;;;17.07;69.05
36248;BME280;22287;50.824;5.644;2022-10-31T10:39:36;100990.28;;;17.35;68.09
36248;BME280;22287;50.824;5.644;2022-10-31T10:42:19;101002.50;;;17.81;66.47
36248;BME280;22287;50.824;5.644;2022-10-31T10:45:16;100999.78;;;17.81;66.77
36248;BME280;22287;50.824;5.644;2022-10-31T10:50:41;101003.53;;;17.72;67.20
36248;BME280;22287;50.824;5.644;2022-10-31T10:56:04;100993.56;;;18.43;64.44
36248;BME280;22287;50.824;5.644;2022-10-31T10:58:35;100992.19;;;18.39;64.57
36248;BME280;22287;50.824;5.644;2022-10-31T11:01:14;100985.88;;;18.39;64.97
36248;BME280;22287;50.824;5.644;2022-10-31T11:03:41;100977.00;;;18.84;63.29
36248;BME280;22287;50.824;5.644;2022-10-31T11:06:22;100970.50;;;18.30;64.81
36248;BME280;22287;50.824;5.644;2022-10-31T11:08:52;100956.53;;;18.08;66.06
36248;BME280;22287;50.824;5.644;2022-10-31T11:11:23;100955.94;;;18.37;64.84
36248;BME280;22287;50.824;5.644;2022-10-31T11:14:04;100949.25;;;18.40;65.08
36248;BME280;22287;50.824;5.644;2022-10-31T11:16:33;100944.56;;;18.64;63.50
36248;BME280;22287;50.824;5.644;2022-10-31T11:19:25;100945.16;;;18.91;62.78
36248;BME280;22287;50.824;5.644;2022-10-31T11:21:53;100923.69;;;19.25;61.67
36248;BME280;22287;50.824;5.644;2022-10-31T11:24:40;100924.28;;;18.90;63.21
36248;BME280;22287;50.824;5.644;2022-10-31T11:27:15;100911.56;;;19.27;61.39
36248;BME280;22287;50.824;5.644;2022-10-31T11:29:42;100916.53;;;19.24;61.16
36248;BME280;22287;50.824;5.644;2022-10-31T11:32:21;100912.94;;;18.62;63.23
36248;BME280;22287;50.824;5.644;2022-10-31T11:34:52;100903.81;;;18.31;64.56
36248;BME280;22287;50.824;5.644;2022-10-31T11:37:29;100890.38;;;18.91;63.43
36248;BME280;22287;50.824;5.644;2022-10-31T11:39:59;100886.63;;;18.84;63.90
36248;BME280;22287;50.824;5.644;2022-10-31T11:42:34;100891.56;;;18.57;65.04
36248;BME280;22287;50.824;5.644;2022-10-31T11:45:13;100879.38;;;18.21;65.40
36248;BME280;22287;50.824;5.644;2022-10-31T11:47:47;100876.06;;;18.81;64.74
36248;BME280;22287;50.824;5.644;2022-10-31T11:50:25;100872.03;;;19.22;61.75
36248;BME280;22287;50.824;5.644;2022-10-31T11:52:53;100868.53;;;18.83;63.29
36248;BME280;22287;50.824;5.644;2022-10-31T11:55:38;100860.41;;;18.66;63.64
36248;BME280;22287;50.824;5.644;2022-10-31T11:58:26;100852.78;;;19.07;62.94
36248;BME280;22287;50.824;5.644;2022-10-31T12:00:55;100852.00;;;19.44;61.16
36248;BME280;22287;50.824;5.644;2022-10-31T12:03:26;100835.41;;;19.60;60.71
36248;BME280;22287;50.824;5.644;2022-10-31T12:06:22;100825.59;;;19.66;60.48
36248;BME280;22287;50.824;5.644;2022-10-31T12:08:50;100821.69;;;19.75;60.56
36248;BME280;22287;50.824;5.644;2022-10-31T12:14:00;100816.31;;;19.52;61.02
36248;BME280;22287;50.824;5.644;2022-10-31T12:16:57;100812.22;;;19.03;63.06
36248;BME280;22287;50.824;5.644;2022-10-31T12:25:09;100793.50;;;19.29;62.36
36248;BME280;22287;50.824;5.644;2022-10-31T12:30:24;100764.75;;;19.48;62.61
36248;BME280;22287;50.824;5.644;2022-10-31T12:33:19;100763.38;;;19.29;63.16
36248;BME280;22287;50.824;5.644;2022-10-31T12:36:14;100755.41;;;19.57;62.00
36248;BME280;22287;50.824;5.644;2022-10-31T12:41:40;100753.78;;;20.21;59.92
36248;BME280;22287;50.824;5.644;2022-10-31T12:50:02;100740.03;;;20.35;60.20
36248;BME280;22287;50.824;5.644;2022-10-31T13:00:44;100714.31;;;20.58;60.32
36248;BME280;22287;50.824;5.644;2022-10-31T13:03:26;100695.00;;;20.30;61.23
36248;BME280;22287;50.824;5.644;2022-10-31T13:05:58;100693.81;;;20.03;61.96
36248;BME280;22287;50.824;5.644;2022-10-31T13:08:50;100679.94;;;20.40;61.12
36248;BME280;22287;50.824;5.644;2022-10-31T13:11:37;100679.53;;;20.65;60.95
36248;BME280;22287;50.824;5.644;2022-10-31T13:14:14;100668.50;;;20.79;60.01
36248;BME280;22287;50.824;5.644;2022-10-31T13:16:46;100660.63;;;20.76;60.22
36248;BME280;22287;50.824;5.644;2022-10-31T13:22:12;100655.00;;;20.84;59.93
36248;BME280;22287;50.824;5.644;2022-10-31T13:25:08;100642.16;;;20.91;59.63
36248;BME280;22287;50.824;5.644;2022-10-31T13:28:02;100638.41;;;21.61;56.36
36248;BME280;22287;50.824;5.644;2022-10-31T13:30:36;100628.91;;;21.63;56.76
36248;BME280;22287;50.824;5.644;2022-10-31T13:33:21;100619.69;;;21.37;57.80
36248;BME280;22287;50.824;5.644;2022-10-31T13:35:54;100617.84;;;21.57;54.43
36248;BME280;22287;50.824;5.644;2022-10-31T13:41:22;100619.28;;;21.40;53.18
36248;BME280;22287;50.824;5.644;2022-10-31T13:44:15;100627.94;;;21.43;51.72
36248;BME280;22287;50.824;5.644;2022-10-31T13:46:44;100612.28;;;21.44;51.30
36248;BME280;22287;50.824;5.644;2022-10-31T13:51:50;100611.03;;;21.40;50.89
36248;BME280;22287;50.824;5.644;2022-10-31T13:56:52;100613.09;;;21.03;51.44
36248;BME280;22287;50.824;5.644;2022-10-31T13:59:22;100609.59;;;21.16;50.73
36248;BME280;22287;50.824;5.644;2022-10-31T14:01:56;100615.22;;;21.36;49.95
36248;BME280;22287;50.824;5.644;2022-10-31T14:04:28;100609.66;;;21.29;51.15
36248;BME280;22287;50.824;5.644;2022-10-31T14:09:41;100596.53;;;20.97;50.52
36248;BME280;22287;50.824;5.644;2022-10-31T14:12:29;100584.44;;;21.13;50.47
36248;BME280;22287;50.824;5.644;2022-10-31T14:15:05;100585.22;;;21.06;50.93
36248;BME280;22287;50.824;5.644;2022-10-31T14:17:46;100579.34;;;21.10;50.52
36248;BME280;22287;50.824;5.644;2022-10-31T14:22:41;100556.13;;;21.19;51.44
36248;BME280;22287;50.824;5.644;2022-10-31T14:25:28;100564.25;;;21.05;50.69
36248;BME280;22287;50.824;5.644;2022-10-31T14:27:56;100548.25;;;21.09;50.05
36248;BME280;22287;50.824;5.644;2022-10-31T14:30:25;100537.94;;;21.18;49.30
36248;BME280;22287;50.824;5.644;2022-10-31T14:32:57;100532.22;;;21.13;49.24
36248;BME280;22287;50.824;5.644;2022-10-31T14:35:34;100519.44;;;21.05;49.51
36248;BME280;22287;50.824;5.644;2022-10-31T14:51:39;100515.03;;;21.51;47.63
36248;BME280;22287;50.824;5.644;2022-10-31T14:54:12;100514.31;;;21.30;48.30
36248;BME280;22287;50.824;5.644;2022-10-31T14:56:49;100517.00;;;21.17;49.29
36248;BME280;22287;50.824;5.644;2022-10-31T14:59:22;100511.47;;;21.10;48.99
36248;BME280;22287;50.824;5.644;2022-10-31T15:01:57;100503.31;;;21.30;48.39
36248;BME280;22287;50.824;5.644;2022-10-31T15:04:28;100497.31;;;21.13;48.76
36248;BME280;22287;50.824;5.644;2022-10-31T15:07:07;100500.34;;;21.25;48.59
36248;BME280;22287;50.824;5.644;2022-10-31T15:09:37;100504.78;;;21.26;nan
36248;BME280;22287;50.824;5.644;2022-10-31T15:14:50;100499.84;;;20.80;49.72
36248;BME280;22287;50.824;5.644;2022-10-31T15:17:17;100499.84;;;20.80;49.43
36248;BME280;22287;50.824;5.644;2022-10-31T15:19:45;100491.38;;;20.75;50.03
36248;BME280;22287;50.824;5.644;2022-10-31T15:22:17;100492.94;;;20.57;50.43
36248;BME280;22287;50.824;5.644;2022-10-31T15:24:45;100489.59;;;20.61;50.31
36248;BME280;22287;50.824;5.644;2022-10-31T15:27:16;100496.38;;;20.65;49.48
36248;BME280;22287;50.824;5.644;2022-10-31T15:29:51;100493.44;;;20.67;49.50
36248;BME280;22287;50.824;5.644;2022-10-31T15:32:28;100493.81;;;20.57;50.41
36248;BME280;22287;50.824;5.644;2022-10-31T15:34:56;100483.25;;;20.61;49.26